Time;durP1;ratioP1;P1;durP2;ratioP2;P2;SDS_P1;SDS_P2;PMS_P1;PMS_P2;Temp;Humidity;BMP_temperature;BMP_pressure;BME280_temperature;BME280_humidity;BME280_pressure;Samples;Min_cycle;Max_cycle;Signal;HPM_P1;HPM_P2
2021/08/10 00:01:24;;;;;;;7.47;1.73;;;16.40;99.90;;;;;;5054716;28;20024;-73
2021/08/10 00:03:50;;;;;;;3.80;1.98;;;16.40;99.90;;;;;;5054719;28;20025;-73
2021/08/10 00:06:15;;;;;;;5.28;2.17;;;16.40;99.90;;;;;;5053469;28;20033;-73
2021/08/10 00:08:41;;;;;;;8.43;3.55;;;16.40;99.90;;;;;;5056756;28;20029;-73
2021/08/10 00:11:07;;;;;;;3.72;1.92;;;16.30;99.90;;;;;;5057231;28;20052;-74
2021/08/10 00:13:33;;;;;;;6.00;2.22;;;16.40;99.90;;;;;;5056310;28;20033;-74
2021/08/10 00:15:58;;;;;;;7.75;2.10;;;16.40;99.90;;;;;;5054099;28;20051;-73
2021/08/10 00:18:24;;;;;;;5.55;2.35;;;16.40;99.90;;;;;;5060015;28;20055;-74
2021/08/10 00:20:50;;;;;;;5.43;2.08;;;16.40;99.90;;;;;;5055692;28;20029;-73
2021/08/10 00:23:17;;;;;;;4.15;1.80;;;16.40;99.90;;;;;;5055965;28;20027;-74
2021/08/10 00:25:43;;;;;;;5.40;2.05;;;16.40;99.90;;;;;;5055338;28;20023;-74
2021/08/10 00:28:08;;;;;;;4.10;2.97;;;16.30;99.90;;;;;;5057053;28;20103;-73
2021/08/10 00:30:34;;;;;;;5.72;2.20;;;16.30;99.90;;;;;;5054072;28;20374;-73
2021/08/10 00:33:00;;;;;;;3.65;2.83;;;16.30;99.90;;;;;;5057228;28;20035;-75
2021/08/10 00:35:26;;;;;;;9.70;3.03;;;16.30;99.90;;;;;;5055723;28;20388;-74
2021/08/10 00:37:51;;;;;;;8.60;2.50;;;16.30;99.90;;;;;;5055831;28;20460;-74
2021/08/10 00:40:19;;;;;;;10.10;2.45;;;16.30;99.90;;;;;;5053464;28;20013;-74
2021/08/10 00:42:44;;;;;;;4.30;2.92;;;16.30;99.90;;;;;;5057769;28;20487;-74
2021/08/10 00:45:10;;;;;;;5.30;2.75;;;16.30;99.90;;;;;;5052150;28;20021;-74
2021/08/10 00:50:21;;;;;;;8.55;3.85;;;16.30;99.90;;;;;;5054005;28;20595;-74
2021/08/10 00:52:47;;;;;;;8.00;3.30;;;16.30;99.90;;;;;;5055129;28;20100;-74
2021/08/10 00:55:13;;;;;;;8.23;3.20;;;16.30;99.90;;;;;;5054262;28;20404;-74
2021/08/10 00:57:39;;;;;;;10.32;3.20;;;16.20;99.90;;;;;;5052142;28;20044;-73
2021/08/10 01:00:06;;;;;;;7.97;2.72;;;16.20;99.90;;;;;;5054695;28;20066;-74
2021/08/10 01:02:32;;;;;;;16.92;3.30;;;16.30;99.90;;;;;;5052458;28;20494;-74
2021/08/10 01:04:58;;;;;;;6.65;2.90;;;16.30;99.90;;;;;;5054021;28;20064;-74
2021/08/10 01:07:48;;;;;;;4.72;2.78;;;16.30;99.90;;;;;;5052081;28;20039;-74
2021/08/10 01:10:39;;;;;;;7.90;3.08;;;16.30;99.90;;;;;;5054206;28;20029;-73
2021/08/10 01:13:10;;;;;;;7.45;3.00;;;16.20;99.90;;;;;;5052652;28;20112;-74
2021/08/10 01:16:17;;;;;;;5.22;2.80;;;16.20;99.90;;;;;;5053613;28;20059;-74
2021/08/10 01:19:16;;;;;;;5.90;2.80;;;16.20;99.90;;;;;;5062438;28;20414;-72
2021/08/10 01:21:45;;;;;;;5.40;3.15;;;16.20;99.90;;;;;;5053655;28;20055;-72
2021/08/10 01:24:19;;;;;;;8.57;3.13;;;16.20;99.90;;;;;;5050420;28;20369;-73
2021/08/10 01:26:53;;;;;;;5.80;3.10;;;16.20;99.90;;;;;;5052901;28;20381;-72
2021/08/10 01:29:33;;;;;;;6.13;3.13;;;16.20;99.90;;;;;;5050550;28;20429;-73
2021/08/10 01:32:00;;;;;;;8.32;3.45;;;16.20;99.90;;;;;;5056716;28;20044;-76
2021/08/10 01:34:29;;;;;;;6.30;3.33;;;16.20;99.90;;;;;;5053205;28;20013;-73
2021/08/10 01:36:57;;;;;;;7.38;2.80;;;16.20;99.90;;;;;;5062695;28;20021;-74
2021/08/10 01:39:27;;;;;;;7.63;3.20;;;16.20;99.90;;;;;;5063000;28;20020;-73
2021/08/10 01:41:54;;;;;;;11.63;3.55;;;16.20;99.90;;;;;;5075472;28;20024;-74
2021/08/10 01:44:25;;;;;;;11.85;3.50;;;16.20;99.90;;;;;;5064973;28;20046;-73
2021/08/10 01:46:52;;;;;;;6.95;4.50;;;16.20;99.90;;;;;;5069338;28;20101;-75
2021/08/10 01:52:05;;;;;;;9.13;4.22;;;16.20;99.90;;;;;;5061606;28;20092;-75
2021/08/10 01:54:31;;;;;;;8.88;3.03;;;16.20;99.90;;;;;;5062433;28;20032;-73
2021/08/10 01:56:58;;;;;;;8.63;3.55;;;16.20;99.90;;;;;;5069444;28;20781;-72
2021/08/10 01:59:25;;;;;;;10.48;3.22;;;16.30;99.90;;;;;;5072572;28;20072;-74
2021/08/10 02:01:51;;;;;;;11.50;3.65;;;16.20;99.90;;;;;;5070483;28;20029;-73
2021/08/10 02:04:18;;;;;;;6.47;3.03;;;16.20;99.90;;;;;;5075386;28;20032;-74
2021/08/10 02:06:46;;;;;;;5.90;3.13;;;16.20;99.90;;;;;;5072991;28;20021;-73
2021/08/10 02:09:14;;;;;;;4.90;3.22;;;16.30;99.90;;;;;;5071563;28;20027;-73
2021/08/10 02:11:39;;;;;;;6.85;3.10;;;16.20;99.90;;;;;;5075779;28;20040;-74
2021/08/10 02:14:08;;;;;;;5.50;3.45;;;16.20;99.90;;;;;;5063880;28;20029;-74
2021/08/10 02:16:34;;;;;;;8.50;3.47;;;16.20;99.90;;;;;;5059164;28;20168;-74
2021/08/10 02:18:59;;;;;;;8.80;3.47;;;16.20;99.90;;;;;;5056509;28;20052;-73
2021/08/10 02:21:27;;;;;;;5.45;3.22;;;16.20;99.90;;;;;;5055633;28;20013;-73
2021/08/10 02:24:01;;;;;;;;;;;16.20;99.90;;;;;;5055563;28;20091;-73
2021/08/10 02:26:29;;;;;;;13.70;3.35;;;16.20;99.90;;;;;;5056265;28;19912;-73
2021/08/10 02:28:56;;;;;;;5.25;3.13;;;16.10;99.90;;;;;;5052759;28;20457;-74
2021/08/10 02:31:25;;;;;;;10.38;3.33;;;16.10;99.90;;;;;;5054599;28;20025;-74
2021/08/10 02:33:51;;;;;;;9.68;3.05;;;16.10;99.90;;;;;;5059437;28;20037;-73
2021/08/10 02:36:19;;;;;;;3.78;2.70;;;16.10;99.90;;;;;;5054000;28;20021;-73
2021/08/10 02:38:46;;;;;;;6.72;3.45;;;16.20;99.90;;;;;;5054493;28;20064;-72
2021/08/10 02:41:12;;;;;;;9.93;3.55;;;16.10;99.90;;;;;;5056013;28;20103;-72
2021/08/10 02:43:39;;;;;;;10.73;3.53;;;16.10;99.90;;;;;;5052351;28;20032;-72
2021/08/10 02:46:05;;;;;;;4.93;3.40;;;16.10;99.90;;;;;;5058090;28;20016;-72
2021/08/10 02:48:31;;;;;;;11.40;3.75;;;16.10;99.90;;;;;;5055076;28;20079;-73
2021/08/10 02:50:57;;;;;;;5.93;3.53;;;16.10;99.90;;;;;;5052506;28;20025;-73
2021/08/10 02:53:23;;;;;;;8.70;3.53;;;16.00;99.90;;;;;;5052060;28;20370;-72
2021/08/10 02:55:57;;;;;;;7.22;3.42;;;16.00;99.90;;;;;;5052872;28;20095;-72
2021/08/10 02:58:29;;;;;;;13.85;3.63;;;16.00;99.90;;;;;;5051060;28;20024;-72
2021/08/10 03:00:59;;;;;;;5.70;3.25;;;15.90;99.90;;;;;;5052424;28;20072;-72
2021/08/10 03:03:29;;;;;;;6.00;3.20;;;16.00;99.90;;;;;;5054217;28;20050;-73
2021/08/10 03:05:57;;;;;;;4.28;3.00;;;16.00;99.90;;;;;;5053723;28;20386;-73
2021/08/10 03:08:28;;;;;;;7.22;3.45;;;16.00;99.90;;;;;;5054785;28;20025;-72
2021/08/10 03:10:56;;;;;;;11.43;3.30;;;16.00;99.90;;;;;;5055718;28;20091;-73
2021/08/10 03:13:25;;;;;;;13.40;3.50;;;16.00;99.90;;;;;;5055517;28;20025;-73
2021/08/10 03:15:52;;;;;;;7.93;2.95;;;16.00;99.90;;;;;;5055415;28;20025;-73
2021/08/10 03:18:26;;;;;;;7.07;3.42;;;16.00;99.90;;;;;;5054760;28;20107;-74
2021/08/10 03:20:57;;;;;;;6.15;3.00;;;16.00;99.90;;;;;;5055502;28;20077;-73
2021/08/10 03:23:26;;;;;;;10.23;2.97;;;16.00;99.90;;;;;;5055366;28;20021;-73
2021/08/10 03:25:52;;;;;;;9.80;4.07;;;16.00;99.90;;;;;;5054140;28;20060;-74
2021/08/10 03:28:20;;;;;;;4.55;2.60;;;16.00;99.90;;;;;;5068243;28;20037;-73
2021/08/10 03:30:46;;;;;;;10.15;3.30;;;16.00;99.90;;;;;;5054121;28;20062;-72
2021/08/10 03:33:12;;;;;;;10.05;3.97;;;15.90;99.90;;;;;;5055804;28;20040;-73
2021/08/10 03:35:38;;;;;;;18.73;3.65;;;15.90;99.90;;;;;;5055789;28;20108;-72
2021/08/10 03:38:06;;;;;;;9.45;4.43;;;15.90;99.90;;;;;;5054490;28;20029;-72
2021/08/10 03:40:32;;;;;;;;;;;15.90;99.90;;;;;;5057381;28;20032;-72
2021/08/10 03:42:57;;;;;;;12.70;3.47;;;16.00;99.90;;;;;;5054765;28;19908;-72
2021/08/10 03:48:07;;;;;;;8.27;3.42;;;16.00;99.90;;;;;;5054451;28;20040;-72
2021/08/10 03:50:35;;;;;;;6.28;3.05;;;16.00;99.90;;;;;;5057570;28;20029;-72
2021/08/10 03:53:00;;;;;;;5.60;2.78;;;16.00;99.90;;;;;;5054485;28;20127;-73
2021/08/10 03:55:26;;;;;;;8.32;3.20;;;16.00;99.90;;;;;;5057703;28;20112;-72
2021/08/10 03:57:53;;;;;;;11.93;3.72;;;16.00;99.90;;;;;;5054306;28;20123;-73
2021/08/10 04:00:19;;;;;;;7.17;3.70;;;16.00;99.90;;;;;;5055230;28;20045;-73
2021/08/10 04:02:45;;;;;;;11.40;3.20;;;16.00;99.90;;;;;;5052999;28;20033;-72
2021/08/10 04:05:13;;;;;;;9.27;3.08;;;16.00;99.90;;;;;;5057128;28;20033;-73
2021/08/10 04:07:41;;;;;;;9.57;4.05;;;16.00;99.90;;;;;;5056670;28;20108;-73
2021/08/10 04:10:08;;;;;;;5.70;3.25;;;16.00;99.90;;;;;;5052916;28;20021;-73
2021/08/10 04:12:35;;;;;;;;;;;16.00;99.90;;;;;;5053507;28;20025;-73
2021/08/10 04:15:00;;;;;;;9.68;4.07;;;16.00;99.90;;;;;;5053127;28;20395;-72
2021/08/10 04:17:27;;;;;;;7.18;3.72;;;15.90;99.90;;;;;;5052242;28;20033;-72
2021/08/10 04:19:53;;;;;;;7.57;3.45;;;15.90;99.90;;;;;;5055235;28;20017;-72
2021/08/10 04:22:20;;;;;;;11.07;3.47;;;15.90;99.90;;;;;;5053566;28;20050;-72
2021/08/10 04:24:46;;;;;;;10.05;3.53;;;15.90;99.90;;;;;;5056641;28;20068;-74
2021/08/10 04:27:16;;;;;;;8.63;3.38;;;15.90;99.90;;;;;;5053772;28;20029;-73
2021/08/10 04:29:41;;;;;;;7.10;3.28;;;15.90;99.90;;;;;;5052501;28;20040;-72
2021/08/10 04:32:08;;;;;;;7.90;3.63;;;15.90;99.90;;;;;;5056825;28;20033;-72
2021/08/10 04:34:34;;;;;;;10.05;3.50;;;15.90;99.90;;;;;;5054191;28;20036;-72
2021/08/10 04:37:00;;;;;;;11.75;4.47;;;15.90;99.90;;;;;;5055867;28;20025;-72
2021/08/10 04:39:26;;;;;;;10.52;3.22;;;15.90;99.90;;;;;;5053981;28;20485;-72
2021/08/10 04:42:01;;;;;;;9.63;3.83;;;15.90;99.90;;;;;;5052954;28;20479;-72
2021/08/10 04:44:26;;;;;;;6.00;3.83;;;15.90;99.90;;;;;;5053206;28;20025;-72
2021/08/10 04:46:52;;;;;;;8.85;3.97;;;15.80;99.90;;;;;;5053809;28;20029;-72
2021/08/10 04:49:18;;;;;;;8.45;3.55;;;15.80;99.90;;;;;;5051900;28;20037;-73
2021/08/10 04:51:43;;;;;;;6.72;3.88;;;15.80;99.90;;;;;;5052486;28;20021;-72
2021/08/10 04:54:15;;;;;;;8.13;4.43;;;15.70;99.90;;;;;;5055050;28;20059;-73
2021/08/10 04:56:40;;;;;;;8.35;3.40;;;15.80;99.90;;;;;;5053931;28;20025;-72
2021/08/10 04:59:06;;;;;;;6.00;3.35;;;15.70;99.90;;;;;;5051924;28;20469;-72
2021/08/10 05:01:31;;;;;;;8.48;3.88;;;15.70;99.90;;;;;;5053125;28;20044;-72
2021/08/10 05:03:57;;;;;;;9.18;3.70;;;15.70;99.90;;;;;;5060227;28;20111;-72
2021/08/10 05:06:22;;;;;;;8.30;3.40;;;15.70;99.90;;;;;;5052924;28;20127;-72
2021/08/10 05:08:48;;;;;;;13.98;3.75;;;15.70;99.90;;;;;;5050791;28;20048;-72
2021/08/10 05:11:14;;;;;;;13.00;4.20;;;15.70;99.90;;;;;;5051786;28;20033;-72
2021/08/10 05:13:40;;;;;;;10.60;4.75;;;15.70;99.90;;;;;;5050489;28;21183;-73
2021/08/10 05:16:05;;;;;;;12.77;4.25;;;15.70;99.90;;;;;;5051346;28;20051;-72
2021/08/10 05:18:31;;;;;;;14.05;4.18;;;15.80;99.90;;;;;;5054288;28;20029;-72
2021/08/10 05:20:57;;;;;;;10.07;3.83;;;15.80;99.90;;;;;;5051011;28;20029;-74
2021/08/10 05:23:23;;;;;;;11.80;3.67;;;15.80;99.90;;;;;;5052656;28;20028;-72
2021/08/10 05:25:48;;;;;;;15.48;4.22;;;15.80;99.90;;;;;;5049688;28;20017;-72
2021/08/10 05:28:14;;;;;;;8.13;3.30;;;15.80;99.90;;;;;;5055943;28;20096;-72
2021/08/10 05:30:40;;;;;;;6.65;3.65;;;15.80;99.90;;;;;;5058531;28;20037;-73
2021/08/10 05:33:05;;;;;;;7.55;3.75;;;15.90;99.90;;;;;;5056021;28;20037;-72
2021/08/10 05:35:31;;;;;;;8.43;3.53;;;15.90;99.90;;;;;;5058273;28;20116;-72
2021/08/10 05:37:57;;;;;;;12.20;4.93;;;15.90;99.90;;;;;;5061022;28;20051;-72
2021/08/10 05:40:22;;;;;;;13.98;4.30;;;16.00;99.90;;;;;;5056356;28;20478;-72
2021/08/10 05:42:48;;;;;;;9.70;4.28;;;16.00;99.90;;;;;;5073476;28;20052;-72
2021/08/10 05:45:13;;;;;;;11.05;4.97;;;16.00;99.90;;;;;;5063618;28;20567;-72
2021/08/10 05:47:39;;;;;;;8.38;3.72;;;16.10;99.90;;;;;;5065842;28;20028;-73
2021/08/10 05:50:05;;;;;;;9.93;3.83;;;16.10;99.90;;;;;;5065850;28;20491;-73
2021/08/10 05:52:31;;;;;;;6.70;3.75;;;16.20;99.90;;;;;;5063664;28;20025;-73
2021/08/10 05:54:57;;;;;;;9.50;4.03;;;16.20;99.90;;;;;;5065858;28;20047;-74
2021/08/10 05:57:22;;;;;;;8.65;5.25;;;16.20;99.90;;;;;;5065992;28;20052;-73
2021/08/10 05:59:48;;;;;;;7.15;3.55;;;16.20;99.90;;;;;;5058879;28;20092;-72
2021/08/10 06:02:14;;;;;;;5.85;4.20;;;16.30;99.90;;;;;;5053471;28;20028;-72
2021/08/10 06:04:40;;;;;;;11.02;4.10;;;16.30;99.90;;;;;;5057519;28;20025;-72
2021/08/10 06:07:07;;;;;;;13.55;4.38;;;16.40;99.90;;;;;;5052597;28;20021;-72
2021/08/10 06:09:33;;;;;;;7.23;4.10;;;16.50;99.90;;;;;;5051975;28;20112;-73
2021/08/10 06:11:58;;;;;;;14.80;4.70;;;16.60;99.90;;;;;;5053666;28;20789;-72
2021/08/10 06:14:24;;;;;;;12.50;4.10;;;16.70;99.90;;;;;;5053241;28;20104;-74
2021/08/10 06:16:50;;;;;;;16.45;4.13;;;16.80;99.90;;;;;;5053631;28;20033;-72
2021/08/10 06:19:16;;;;;;;10.75;4.38;;;16.90;99.90;;;;;;5052321;28;20032;-73
2021/08/10 06:21:42;;;;;;;12.90;4.90;;;16.90;99.90;;;;;;5051117;28;20389;-72
2021/08/10 06:24:08;;;;;;;5.88;3.60;;;16.90;99.90;;;;;;5051690;28;20447;-74
2021/08/10 06:26:33;;;;;;;8.88;3.72;;;17.00;99.90;;;;;;5052287;28;20025;-73
2021/08/10 06:28:59;;;;;;;9.10;3.75;;;17.10;99.90;;;;;;5050672;28;20079;-73
2021/08/10 06:31:25;;;;;;;13.93;3.97;;;17.20;99.90;;;;;;5051180;28;20416;-73
2021/08/10 06:33:51;;;;;;;9.07;3.72;;;17.20;99.90;;;;;;5050721;28;20503;-72
2021/08/10 06:36:16;;;;;;;10.25;4.13;;;17.20;99.90;;;;;;5051400;28;20117;-72
2021/08/10 06:38:42;;;;;;;9.52;3.75;;;17.20;99.90;;;;;;5054130;28;20366;-72
2021/08/10 06:41:07;;;;;;;5.38;3.63;;;17.30;99.90;;;;;;5053734;28;20492;-73
2021/08/10 06:43:33;;;;;;;8.90;3.90;;;17.40;99.90;;;;;;5053571;28;20020;-73
2021/08/10 06:45:59;;;;;;;15.73;4.45;;;17.50;99.90;;;;;;5054037;28;20067;-73
2021/08/10 06:48:24;;;;;;;15.20;5.45;;;17.60;99.90;;;;;;5056695;28;20047;-72
2021/08/10 06:50:50;;;;;;;7.55;3.97;;;17.70;99.90;;;;;;5053083;28;20509;-72
2021/08/10 06:53:17;;;;;;;8.50;4.10;;;17.80;99.90;;;;;;5053132;28;20029;-72
2021/08/10 06:55:43;;;;;;;10.17;3.93;;;17.90;99.90;;;;;;5054941;28;20440;-72
2021/08/10 06:58:09;;;;;;;7.45;4.70;;;18.10;99.90;;;;;;5052883;28;20297;-72
2021/08/10 07:00:34;;;;;;;14.93;4.10;;;18.30;99.90;;;;;;5053612;28;20128;-73
2021/08/10 07:03:00;;;;;;;13.25;4.07;;;18.30;99.90;;;;;;5054336;28;20507;-73
2021/08/10 07:05:26;;;;;;;7.63;4.35;;;18.30;99.90;;;;;;5054803;28;20121;-72
2021/08/10 07:07:52;;;;;;;7.45;4.07;;;18.30;99.90;;;;;;5050018;28;20037;-73
2021/08/10 07:10:18;;;;;;;14.10;5.43;;;18.10;99.90;;;;;;5055047;28;20033;-71
2021/08/10 07:12:43;;;;;;;13.05;4.88;;;18.00;99.90;;;;;;5053613;28;20021;-71
2021/08/10 07:15:09;;;;;;;11.00;5.03;;;18.00;99.90;;;;;;5054387;28;20033;-72
2021/08/10 07:17:35;;;;;;;11.73;5.93;;;18.00;99.90;;;;;;5055406;28;20021;-73
2021/08/10 07:20:01;;;;;;;11.35;4.60;;;18.00;99.90;;;;;;5054866;28;20048;-72
2021/08/10 07:22:27;;;;;;;7.45;4.47;;;18.00;99.90;;;;;;5055577;28;20501;-72
2021/08/10 07:24:52;;;;;;;15.98;4.85;;;18.10;99.90;;;;;;5054297;28;20028;-72
2021/08/10 07:27:18;;;;;;;16.08;5.43;;;18.10;99.90;;;;;;5054325;28;20028;-72
2021/08/10 07:29:43;;;;;;;10.85;4.15;;;18.10;99.90;;;;;;5055361;28;20492;-72
2021/08/10 07:32:09;;;;;;;14.70;4.80;;;18.20;99.90;;;;;;5055392;28;20032;-71
2021/08/10 07:34:35;;;;;;;11.18;4.80;;;18.20;99.90;;;;;;5054616;28;20120;-72
2021/08/10 07:37:00;;;;;;;14.18;4.28;;;18.20;99.90;;;;;;5054764;28;20028;-72
2021/08/10 07:42:10;;;;;;;12.73;3.67;;;18.50;99.90;;;;;;5039371;28;20044;-72
2021/08/10 07:44:36;;;;;;;9.65;4.03;;;18.80;99.90;;;;;;5047202;28;20022;-72
2021/08/10 07:47:04;;;;;;;9.75;3.78;;;19.10;99.90;;;;;;5040526;28;20370;-72
2021/08/10 07:49:29;;;;;;;10.15;4.00;;;19.40;99.90;;;;;;5053330;28;20017;-72
2021/08/10 07:51:55;;;;;;;7.80;3.50;;;19.60;99.90;;;;;;5056110;28;20116;-73
2021/08/10 07:54:20;;;;;;;9.13;3.67;;;19.60;99.90;;;;;;5054804;28;20025;-72
2021/08/10 07:56:46;;;;;;;11.45;3.90;;;19.60;99.90;;;;;;5047541;28;20068;-72
2021/08/10 07:59:12;;;;;;;10.18;4.10;;;19.80;99.90;;;;;;5053244;28;20021;-72
2021/08/10 08:01:37;;;;;;;10.40;4.32;;;20.00;99.90;;;;;;5050967;28;20037;-72
2021/08/10 08:04:03;;;;;;;10.95;3.10;;;20.10;99.90;;;;;;5050932;28;20027;-72
2021/08/10 08:06:28;;;;;;;9.90;4.10;;;20.40;99.90;;;;;;5051601;28;20059;-72
2021/08/10 08:08:54;;;;;;;8.05;4.47;;;20.50;99.90;;;;;;5054567;28;20588;-72
2021/08/10 08:11:20;;;;;;;6.82;2.92;;;20.50;99.90;;;;;;5047508;28;20086;-72
2021/08/10 08:13:45;;;;;;;8.15;3.13;;;20.40;99.90;;;;;;5048187;28;20056;-73
2021/08/10 08:16:12;;;;;;;9.48;3.30;;;20.50;99.90;;;;;;5057280;28;20431;-72
2021/08/10 08:18:38;;;;;;;5.47;2.88;;;20.50;99.90;;;;;;5053829;28;20089;-72
2021/08/10 08:21:03;;;;;;;10.65;3.63;;;20.20;99.90;;;;;;5053429;28;20021;-72
2021/08/10 08:23:29;;;;;;;7.85;3.28;;;20.10;99.90;;;;;;5062990;28;20040;-73
2021/08/10 08:25:55;;;;;;;8.05;3.35;;;20.10;99.90;;;;;;5053400;28;20033;-71
2021/08/10 08:28:21;;;;;;;7.18;3.15;;;20.00;99.90;;;;;;5054156;28;20100;-72
2021/08/10 08:30:48;;;;;;;9.38;3.35;;;20.00;99.90;;;;;;5052906;28;20489;-72
2021/08/10 08:33:14;;;;;;;8.13;3.30;;;19.70;99.90;;;;;;5054559;28;20378;-73
2021/08/10 08:35:40;;;;;;;7.18;2.88;;;19.50;99.90;;;;;;5053353;28;20066;-72
2021/08/10 08:38:10;;;;;;;7.40;2.65;;;19.30;99.90;;;;;;5054019;28;20029;-74
2021/08/10 08:40:40;;;;;;;7.28;2.83;;;19.20;99.90;;;;;;5054091;28;20029;-73
2021/08/10 08:43:06;;;;;;;4.47;2.60;;;19.10;99.90;;;;;;5053196;28;20130;-73
2021/08/10 08:45:34;;;;;;;8.10;3.20;;;19.10;99.90;;;;;;5054046;28;20053;-73
2021/08/10 08:48:04;;;;;;;7.53;3.40;;;19.10;99.90;;;;;;5049670;28;20402;-73
2021/08/10 08:50:32;;;;;;;12.20;3.47;;;19.30;99.90;;;;;;5051566;28;20040;-73
2021/08/10 08:53:03;;;;;;;5.07;3.08;;;19.50;99.90;;;;;;5053400;28;20036;-72
2021/08/10 08:55:29;;;;;;;12.15;2.95;;;19.50;99.90;;;;;;5052777;28;20032;-72
2021/08/10 08:57:55;;;;;;;4.28;2.30;;;19.40;99.90;;;;;;5054470;28;20111;-72
2021/08/10 09:00:20;;;;;;;9.10;2.65;;;19.30;99.90;;;;;;5056788;28;20069;-73
2021/08/10 09:02:46;;;;;;;7.60;2.85;;;19.10;99.90;;;;;;5055984;28;20544;-73
2021/08/10 09:05:13;;;;;;;7.03;2.60;;;19.00;99.90;;;;;;5069227;28;20029;-72
2021/08/10 09:07:39;;;;;;;6.05;2.60;;;18.90;99.90;;;;;;5053977;28;20021;-72
2021/08/10 09:10:14;;;;;;;6.70;2.20;;;18.70;99.90;;;;;;5051039;28;20500;-73
2021/08/10 09:12:45;;;;;;;6.40;2.50;;;18.60;99.90;;;;;;5066241;28;20059;-72
2021/08/10 09:15:12;;;;;;;5.90;2.72;;;18.50;99.90;;;;;;5053027;28;20439;-73
2021/08/10 09:17:47;;;;;;;5.32;2.80;;;18.40;99.90;;;;;;5053304;28;20018;-72
2021/08/10 09:20:20;;;;;;;8.45;3.80;;;18.20;99.90;;;;;;5052559;28;20013;-75
2021/08/10 09:22:46;;;;;;;4.65;2.10;;;17.80;99.90;;;;;;5061796;28;20057;-73
2021/08/10 09:25:15;;;;;;;6.05;1.95;;;17.40;99.90;;;;;;5053527;28;20056;-72
2021/08/10 09:27:41;;;;;;;7.72;2.20;;;17.00;99.90;;;;;;5053936;28;20413;-71
2021/08/10 09:30:12;;;;;;;6.50;2.08;;;16.80;99.90;;;;;;5053800;28;20033;-72
2021/08/10 09:32:58;;;;;;;9.93;3.15;;;16.60;99.90;;;;;;5053821;28;20497;-72
2021/08/10 09:35:28;;;;;;;5.32;2.05;;;16.30;99.90;;;;;;5052304;28;20045;-72
2021/08/10 09:38:09;;;;;;;7.13;3.88;;;16.10;99.90;;;;;;5060592;28;20037;-72
2021/08/10 09:40:39;;;;;;;6.43;3.95;;;15.90;99.90;;;;;;5066683;28;20485;-72
2021/08/10 09:43:18;;;;;;;4.57;3.90;;;15.80;99.90;;;;;;5066735;28;20025;-73
2021/08/10 09:45:43;;;;;;;10.30;4.22;;;15.70;99.90;;;;;;5071419;28;20035;-75
2021/08/10 09:48:16;;;;;;;11.93;4.82;;;15.80;99.90;;;;;;5067545;28;20025;-73
2021/08/10 09:50:42;;;;;;;10.00;5.22;;;16.00;99.90;;;;;;5072093;28;20040;-73
2021/08/10 09:53:20;;;;;;;10.20;4.65;;;16.10;99.90;;;;;;5065157;28;20056;-72
2021/08/10 09:55:56;;;;;;;9.10;4.97;;;16.10;99.90;;;;;;5071710;28;20072;-74
2021/08/10 09:58:22;;;;;;;8.25;5.50;;;16.20;99.90;;;;;;5066653;28;20039;-74
2021/08/10 10:00:50;;;;;;;14.27;5.90;;;16.20;99.90;;;;;;5062459;28;20464;-74
2021/08/10 10:03:25;;;;;;;11.48;6.70;;;16.40;99.90;;;;;;5066593;28;20013;-73
2021/08/10 10:05:51;;;;;;;10.43;6.65;;;16.50;99.90;;;;;;5054457;28;20056;-74
2021/08/10 10:08:22;;;;;;;13.38;7.18;;;16.90;99.90;;;;;;5037444;28;20100;-71
2021/08/10 10:10:51;;;;;;;12.00;6.13;;;17.30;99.90;;;;;;5050278;28;20025;-72
2021/08/10 10:13:18;;;;;;;11.88;5.95;;;17.50;99.90;;;;;;5050161;28;20038;-72
2021/08/10 10:15:44;;;;;;;10.50;5.90;;;17.50;99.90;;;;;;5057558;28;20043;-72
2021/08/10 10:18:12;;;;;;;17.00;6.55;;;17.50;99.90;;;;;;5050060;28;20296;-73
2021/08/10 10:20:41;;;;;;;14.45;6.75;;;17.50;99.90;;;;;;5037140;28;20040;-73
2021/08/10 10:23:12;;;;;;;8.48;5.95;;;17.50;99.90;;;;;;5036764;28;20041;-72
2021/08/10 10:25:37;;;;;;;13.27;6.32;;;17.60;99.90;;;;;;5042951;28;20053;-73
2021/08/10 10:28:03;;;;;;;9.15;5.82;;;18.00;99.90;;;;;;5060232;28;20507;-73
2021/08/10 10:30:29;;;;;;;20.60;7.47;;;18.60;99.90;;;;;;5058433;28;20115;-73
2021/08/10 10:32:55;;;;;;;15.52;6.38;;;18.90;99.90;;;;;;5064060;28;20018;-74
2021/08/10 10:35:22;;;;;;;14.10;5.38;;;19.00;99.90;;;;;;5058459;28;20039;-74
2021/08/10 10:37:51;;;;;;;8.07;5.90;;;18.90;99.90;;;;;;5068510;28;21803;-75
2021/08/10 10:40:18;;;;;;;10.23;5.07;;;18.90;99.90;;;;;;5072365;28;20032;-77
2021/08/10 10:42:52;;;;;;;9.48;5.22;;;18.80;99.90;;;;;;5063029;28;20075;-75
2021/08/10 10:45:47;;;;;;;13.60;5.25;;;18.90;99.90;;;;;;5054959;28;20029;-74
2021/08/10 10:48:25;;;;;;;11.02;5.88;;;18.90;99.90;;;;;;5053732;28;20507;-75
2021/08/10 10:51:13;;;;;;;10.07;3.63;;;18.90;99.90;;;;;;5055919;28;20033;-75
2021/08/10 10:53:40;;;;;;;7.55;4.78;;;18.90;99.90;;;;;;5066563;28;20033;-75
2021/08/10 10:56:25;;;;;;;8.82;3.78;;;19.00;99.90;;;;;;5066928;28;20039;-76
2021/08/10 10:58:55;;;;;;;15.48;4.03;;;18.90;99.90;;;;;;5064759;28;20043;-75
2021/08/10 11:01:29;;;;;;;8.07;3.85;;;18.80;99.90;;;;;;5065249;28;20048;-75
2021/08/10 11:04:05;;;;;;;12.18;4.15;;;18.70;99.90;;;;;;5061963;28;20029;-74
2021/08/10 11:06:35;;;;;;;13.10;4.05;;;18.70;99.90;;;;;;5078777;28;20492;-74
2021/08/10 11:09:03;;;;;;;8.65;4.03;;;18.80;99.90;;;;;;5065364;28;20071;-74
2021/08/10 11:11:48;;;;;;;5.13;3.75;;;18.80;99.90;;;;;;5059985;28;20029;-74
2021/08/10 11:14:36;;;;;;;14.88;4.10;;;18.90;99.90;;;;;;5044197;28;20041;-74
2021/08/10 11:17:19;;;;;;;8.90;3.70;;;19.00;99.90;;;;;;5067324;28;20070;-75
2021/08/10 11:19:47;;;;;;;11.65;3.63;;;19.00;99.90;;;;;;5064838;28;20025;-75
2021/08/10 11:22:16;;;;;;;;;;;19.00;99.90;;;;;;5064923;28;20044;-74
2021/08/10 11:24:46;;;;;;;14.13;4.43;;;18.90;99.90;;;;;;5072572;28;19908;-74
2021/08/10 11:27:30;;;;;;;7.97;3.35;;;18.80;99.90;;;;;;5056234;28;20013;-75
2021/08/10 11:29:56;;;;;;;8.40;3.53;;;18.80;99.90;;;;;;5037617;28;20033;-74
2021/08/10 11:32:38;;;;;;;7.80;3.63;;;18.80;99.90;;;;;;5056167;28;20033;-74
2021/08/10 11:35:22;;;;;;;6.95;3.75;;;18.70;99.90;;;;;;5056285;28;20021;-75
2021/08/10 11:38:11;;;;;;;12.82;3.78;;;18.60;99.90;;;;;;5064090;28;20060;-74
2021/08/10 11:40:56;;;;;;;18.05;3.60;;;18.60;99.90;;;;;;5049059;28;20020;-75
2021/08/10 11:43:41;;;;;;;16.48;3.67;;;18.60;99.90;;;;;;5058688;28;20367;-75
2021/08/10 11:46:13;;;;;;;7.80;3.70;;;18.60;99.90;;;;;;5059188;28;20065;-75
2021/08/10 11:48:47;;;;;;;9.25;3.90;;;18.60;99.90;;;;;;5052488;28;20075;-75
2021/08/10 11:51:35;;;;;;;16.00;4.03;;;18.60;99.90;;;;;;5072326;28;20032;-75
2021/08/10 11:54:19;;;;;;;;;;;18.70;99.90;;;;;;5053647;28;20025;-75
2021/08/10 11:56:49;;;;;;;9.77;3.10;;;19.10;99.90;;;;;;5054332;28;19970;-75
2021/08/10 11:59:18;;;;;;;3.78;3.15;;;19.60;99.90;;;;;;5054936;28;20025;-74
2021/08/10 12:01:45;;;;;;;11.93;2.92;;;20.00;99.90;;;;;;5053773;28;20428;-74
2021/08/10 12:04:12;;;;;;;6.07;3.25;;;20.40;99.90;;;;;;5049835;28;20029;-74
2021/08/10 12:06:39;;;;;;;10.40;4.07;;;20.50;99.90;;;;;;5056711;28;20024;-74
2021/08/10 12:09:13;;;;;;;14.75;3.33;;;20.50;99.90;;;;;;5053075;28;20025;-75
2021/08/10 12:11:39;;;;;;;9.50;3.03;;;20.60;99.90;;;;;;5054641;28;20017;-75
2021/08/10 12:14:16;;;;;;;11.50;3.70;;;20.80;99.90;;;;;;5056204;28;20509;-75
2021/08/10 12:17:11;;;;;;;8.40;3.33;;;20.90;99.90;;;;;;5073242;28;20484;-76
2021/08/10 12:19:38;;;;;;;9.43;3.20;;;21.00;99.90;;;;;;5053656;28;20032;-74
2021/08/10 12:22:08;;;;;;;6.47;2.47;;;21.30;99.90;;;;;;5053745;28;20017;-74
2021/08/10 12:24:38;;;;;;;8.48;3.08;;;21.20;99.90;;;;;;5049553;28;20136;-75
2021/08/10 12:27:09;;;;;;;6.80;2.67;;;21.00;99.90;;;;;;5055866;28;20032;-73
2021/08/10 12:29:43;;;;;;;6.95;2.42;;;20.80;99.90;;;;;;5052650;28;20021;-74
2021/08/10 12:32:11;;;;;;;10.52;3.00;;;20.60;99.90;;;;;;5051627;28;20029;-73
2021/08/10 12:34:39;;;;;;;10.18;3.40;;;20.80;99.90;;;;;;5050843;28;20378;-74
2021/08/10 12:37:06;;;;;;;6.82;2.47;;;21.00;99.90;;;;;;5053469;28;20032;-75
2021/08/10 12:39:43;;;;;;;6.82;2.50;;;21.00;99.90;;;;;;5052033;28;20423;-74
2021/08/10 12:42:10;;;;;;;5.00;2.60;;;21.20;99.90;;;;;;5049387;28;20040;-74
2021/08/10 12:44:36;;;;;;;6.23;2.33;;;21.60;99.90;;;;;;5056660;28;20024;-75
2021/08/10 12:47:08;;;;;;;5.35;2.38;;;21.80;99.90;;;;;;5057228;28;20282;-73
2021/08/10 12:49:41;;;;;;;4.18;2.15;;;22.00;99.90;;;;;;5056866;28;20079;-74
2021/08/10 12:52:11;;;;;;;7.68;3.05;;;22.40;99.90;;;;;;5060390;28;20025;-73
2021/08/10 12:54:50;;;;;;;3.97;2.30;;;22.20;99.90;;;;;;5053494;28;20523;-73
2021/08/10 12:57:21;;;;;;;10.38;2.88;;;22.20;99.90;;;;;;5038602;28;20528;-76
2021/08/10 12:59:50;;;;;;;4.78;2.65;;;22.10;99.90;;;;;;5066656;28;20045;-76
2021/08/10 13:02:46;;;;;;;5.78;2.20;;;21.90;99.90;;;;;;5055111;28;20025;-76
2021/08/10 13:05:36;;;;;;;7.60;2.67;;;21.80;99.90;;;;;;5055397;28;20029;-76